Time;durP1;ratioP1;P1;durP2;ratioP2;P2;SDS_P1;SDS_P2;PMS_P1;PMS_P2;Temp;Humidity;BMP_temperature;BMP_pressure;BME280_temperature;BME280_humidity;BME280_pressure;Samples;Min_cycle;Max_cycle;Signal;HPM_P1;HPM_P2
2022/04/05 00:03:23;;;;;;;5.97;5.63;;;;;;;;;;10408338;28;20215;-71
2022/04/05 00:08:24;;;;;;;6.10;5.70;;;;;;;;;;10416198;28;20203;-72
2022/04/05 00:13:25;;;;;;;6.07;5.72;;;;;;;;;;10409967;28;20207;-70
2022/04/05 00:18:26;;;;;;;6.15;5.75;;;;;;;;;;10410816;28;20214;-72
2022/04/05 00:23:27;;;;;;;6.10;5.70;;;;;;;;;;10415403;28;20203;-73
2022/04/05 00:28:28;;;;;;;5.60;5.30;;;;;;;;;;10418969;28;20205;-73
2022/04/05 00:33:29;;;;;;;6.05;5.63;;;;;;;;;;10411157;28;20313;-73
2022/04/05 00:38:30;;;;;;;6.50;6.10;;;;;;;;;;10412046;28;20687;-72
2022/04/05 00:43:31;;;;;;;4.82;4.53;;;;;;;;;;10410400;28;20191;-73
2022/04/05 00:48:44;;;;;;;6.10;5.80;;;;;;;;;;10413266;28;20213;-72
2022/04/05 00:53:47;;;;;;;5.88;5.57;;;;;;;;;;10412039;28;20416;-73
2022/04/05 00:58:49;;;;;;;4.40;4.22;;;;;;;;;;10416660;28;21653;-73
2022/04/05 01:03:51;;;;;;;4.60;4.40;;;;;;;;;;10411826;28;20295;-73
2022/04/05 01:08:53;;;;;;;4.28;4.18;;;;;;;;;;10417802;28;20206;-73
2022/04/05 01:13:54;;;;;;;6.15;5.80;;;;;;;;;;10413894;28;20301;-73
2022/04/05 01:18:55;;;;;;;7.05;6.65;;;;;;;;;;10416916;28;20196;-73
2022/04/05 01:24:12;;;;;;;7.82;7.13;;;;;;;;;;10413045;28;20199;-73
2022/04/05 01:29:14;;;;;;;7.47;6.78;;;;;;;;;;10417651;28;20235;-72
2022/04/05 01:34:16;;;;;;;6.85;6.45;;;;;;;;;;10418507;28;20245;-74
2022/04/05 01:39:18;;;;;;;6.63;6.03;;;;;;;;;;10412838;28;20196;-73
2022/04/05 01:44:19;;;;;;;6.70;6.30;;;;;;;;;;10415951;28;20867;-73
2022/04/05 01:49:20;;;;;;;5.95;5.65;;;;;;;;;;10412989;28;20198;-74
2022/04/05 01:54:21;;;;;;;5.70;5.35;;;;;;;;;;10420754;28;20797;-73
2022/04/05 01:59:24;;;;;;;6.38;6.07;;;;;;;;;;10419611;28;20864;-72
2022/04/05 02:04:25;;;;;;;5.53;5.30;;;;;;;;;;10417712;28;20227;-72
2022/04/05 02:09:27;;;;;;;5.32;5.05;;;;;;;;;;10417030;28;20586;-71
2022/04/05 02:14:28;;;;;;;5.70;5.30;;;;;;;;;;10419324;28;20199;-73
2022/04/05 02:19:31;;;;;;;5.22;5.00;;;;;;;;;;10410796;28;20273;-73
2022/04/05 02:24:33;;;;;;;4.22;4.13;;;;;;;;;;10405378;28;20225;-73
2022/04/05 02:29:34;;;;;;;3.53;3.42;;;;;;;;;;10408861;28;20218;-74
2022/04/05 02:34:41;;;;;;;3.42;3.33;;;;;;;;;;10391488;28;20302;-72
2022/04/05 02:39:43;;;;;;;2.67;2.67;;;;;;;;;;10392877;28;20201;-73
2022/04/05 02:44:46;;;;;;;3.10;3.00;;;;;;;;;;10407886;28;20214;-72
2022/04/05 02:49:48;;;;;;;3.17;3.08;;;;;;;;;;10405255;28;20772;-73
2022/04/05 02:54:55;;;;;;;4.10;3.90;;;;;;;;;;10401714;28;20215;-74
2022/04/05 02:59:59;;;;;;;4.45;4.25;;;;;;;;;;10407745;28;20306;-73
2022/04/05 03:05:01;;;;;;;4.43;4.13;;;;;;;;;;10391690;28;20219;-73
2022/04/05 03:10:06;;;;;;;4.28;4.07;;;;;;;;;;10410158;28;20203;-73
2022/04/05 03:15:09;;;;;;;4.28;4.18;;;;;;;;;;10414669;28;20195;-73
2022/04/05 03:20:14;;;;;;;3.88;3.72;;;;;;;;;;10413212;28;20727;-74
2022/04/05 03:25:22;;;;;;;3.95;3.70;;;;;;;;;;10416693;28;20213;-74
2022/04/05 03:30:25;;;;;;;4.63;4.40;;;;;;;;;;10403159;28;20230;-73
2022/04/05 03:35:28;;;;;;;3.75;3.65;;;;;;;;;;10400652;28;20241;-75
2022/04/05 03:40:32;;;;;;;3.75;3.53;;;;;;;;;;10413705;28;20199;-73
2022/04/05 03:45:35;;;;;;;3.47;3.35;;;;;;;;;;10407340;28;20835;-74
2022/04/05 03:50:38;;;;;;;2.38;2.28;;;;;;;;;;10397171;28;20199;-75
2022/04/05 03:55:39;;;;;;;1.98;1.88;;;;;;;;;;10400665;28;20795;-74
2022/04/05 04:00:44;;;;;;;1.33;1.33;;;;;;;;;;10412750;28;20211;-73
2022/04/05 04:05:59;;;;;;;1.50;1.50;;;;;;;;;;10411139;28;20291;-73
2022/04/05 04:11:01;;;;;;;1.92;1.90;;;;;;;;;;10406266;28;20226;-74
2022/04/05 04:16:04;;;;;;;2.00;1.45;;;;;;;;;;10390180;28;20196;-74
2022/04/05 04:21:07;;;;;;;1.10;0.60;;;;;;;;;;10407240;28;20206;-75
2022/04/05 04:26:09;;;;;;;0.82;0.55;;;;;;;;;;10391502;28;20200;-75
2022/04/05 04:31:10;;;;;;;1.23;0.50;;;;;;;;;;10416201;28;20226;-75
2022/04/05 04:36:12;;;;;;;0.55;0.55;;;;;;;;;;10419841;28;20210;-74
2022/04/05 04:41:13;;;;;;;5.97;0.60;;;;;;;;;;10414864;28;20203;-74
2022/04/05 04:46:14;;;;;;;3.92;0.80;;;;;;;;;;10416951;28;20199;-72
2022/04/05 04:51:15;;;;;;;1.92;0.65;;;;;;;;;;10425814;28;20219;-73
2022/04/05 04:56:16;;;;;;;6.05;0.65;;;;;;;;;;10420761;28;20249;-74
2022/04/05 05:01:17;;;;;;;3.72;0.80;;;;;;;;;;10417607;28;20729;-76
2022/04/05 05:06:18;;;;;;;3.67;0.85;;;;;;;;;;10412193;28;20260;-76
2022/04/05 05:11:20;;;;;;;6.00;1.27;;;;;;;;;;10418325;28;20694;-75
2022/04/05 05:16:21;;;;;;;2.33;1.02;;;;;;;;;;10422360;28;20222;-76
2022/04/05 05:21:23;;;;;;;3.90;1.10;;;;;;;;;;10399273;28;20293;-76
2022/04/05 05:26:24;;;;;;;5.88;1.00;;;;;;;;;;10418371;28;20744;-77
2022/04/05 05:31:25;;;;;;;6.32;0.70;;;;;;;;;;10419095;28;20279;-73
2022/04/05 05:36:26;;;;;;;5.28;1.08;;;;;;;;;;10417812;28;20239;-76
2022/04/05 05:41:27;;;;;;;2.53;0.50;;;;;;;;;;10412469;28;20199;-76
2022/04/05 05:46:28;;;;;;;0.80;0.60;;;;;;;;;;10416312;28;20286;-75
2022/04/05 05:51:29;;;;;;;5.32;0.68;;;;;;;;;;10414533;28;20215;-76
2022/04/05 05:56:30;;;;;;;2.88;0.75;;;;;;;;;;10404769;28;20230;-76
2022/04/05 06:01:31;;;;;;;3.10;0.63;;;;;;;;;;10415938;28;20581;-77
2022/04/05 06:06:33;;;;;;;1.80;0.60;;;;;;;;;;10423952;28;20710;-76
2022/04/05 06:11:34;;;;;;;4.18;0.68;;;;;;;;;;10402130;28;20223;-77
2022/04/05 06:16:35;;;;;;;1.52;0.52;;;;;;;;;;10423532;28;20222;-76
2022/04/05 06:21:36;;;;;;;1.33;0.82;;;;;;;;;;10422438;28;20776;-75
2022/04/05 06:26:37;;;;;;;2.38;0.43;;;;;;;;;;10426731;28;20247;-77
2022/04/05 06:31:38;;;;;;;7.38;0.70;;;;;;;;;;10423859;28;20230;-77
2022/04/05 06:36:40;;;;;;;1.80;0.60;;;;;;;;;;10421373;28;20220;-77
2022/04/05 06:41:41;;;;;;;3.15;0.52;;;;;;;;;;10419671;28;20199;-76
2022/04/05 06:46:42;;;;;;;4.75;0.82;;;;;;;;;;10409156;28;20671;-77
2022/04/05 06:51:43;;;;;;;2.63;0.98;;;;;;;;;;10424404;28;20232;-78
2022/04/05 06:56:45;;;;;;;2.88;0.75;;;;;;;;;;10421056;28;20237;-77
2022/04/05 07:01:46;;;;;;;2.05;0.82;;;;;;;;;;10422391;28;20742;-77
2022/04/05 07:06:47;;;;;;;4.85;0.80;;;;;;;;;;10423597;28;20305;-77
2022/04/05 07:11:48;;;;;;;1.70;0.73;;;;;;;;;;10421175;28;20211;-77
2022/04/05 07:16:49;;;;;;;1.67;0.60;;;;;;;;;;10419276;28;20211;-76
2022/04/05 07:21:50;;;;;;;4.20;0.50;;;;;;;;;;10423340;28;20207;-77
2022/04/05 07:26:52;;;;;;;2.10;0.50;;;;;;;;;;10422832;28;20207;-76
2022/04/05 07:31:53;;;;;;;4.07;0.70;;;;;;;;;;10424071;28;20226;-76
2022/04/05 07:36:54;;;;;;;3.90;0.70;;;;;;;;;;10418052;28;20222;-76
2022/04/05 07:41:55;;;;;;;4.10;0.95;;;;;;;;;;10419533;28;20196;-75
2022/04/05 07:46:56;;;;;;;5.90;0.77;;;;;;;;;;10422373;28;20199;-75
2022/04/05 07:51:57;;;;;;;3.28;0.55;;;;;;;;;;10421340;28;20789;-76
2022/04/05 07:57:00;;;;;;;6.53;1.00;;;;;;;;;;10419553;28;20219;-76
2022/04/05 08:02:01;;;;;;;3.88;0.95;;;;;;;;;;10427174;28;20249;-76
2022/04/05 08:07:02;;;;;;;4.45;0.70;;;;;;;;;;10427224;28;20195;-76
2022/04/05 08:12:04;;;;;;;4.22;0.80;;;;;;;;;;10430627;28;20591;-76
2022/04/05 08:17:06;;;;;;;1.45;0.77;;;;;;;;;;10429457;28;20296;-76
2022/04/05 08:22:08;;;;;;;4.82;0.88;;;;;;;;;;10426576;28;20204;-75
2022/04/05 08:27:09;;;;;;;2.50;0.60;;;;;;;;;;10427961;28;20527;-75
2022/04/05 08:32:10;;;;;;;4.15;0.60;;;;;;;;;;10428345;28;20226;-76
2022/04/05 08:37:12;;;;;;;5.30;0.93;;;;;;;;;;10423854;28;20215;-76
2022/04/05 08:42:14;;;;;;;5.80;0.70;;;;;;;;;;10429595;28;20237;-76
2022/04/05 08:47:15;;;;;;;4.22;1.08;;;;;;;;;;10428820;28;20262;-76
2022/04/05 08:52:16;;;;;;;5.45;0.50;;;;;;;;;;10427112;28;20242;-77
2022/04/05 08:57:17;;;;;;;4.07;0.60;;;;;;;;;;10427868;28;20675;-75
2022/04/05 09:02:25;;;;;;;4.72;0.90;;;;;;;;;;10422852;28;20219;-76
2022/04/05 09:07:29;;;;;;;4.90;0.50;;;;;;;;;;10425635;28;20210;-76
2022/04/05 09:12:38;;;;;;;6.20;0.77;;;;;;;;;;10424467;28;20592;-76
2022/04/05 09:17:40;;;;;;;4.78;0.80;;;;;;;;;;10424114;28;20198;-76
2022/04/05 09:22:41;;;;;;;2.40;0.60;;;;;;;;;;10423937;28;20281;-76
2022/04/05 09:27:56;;;;;;;3.72;1.10;;;;;;;;;;10422868;28;20244;-75
2022/04/05 09:32:57;;;;;;;6.43;0.73;;;;;;;;;;10406846;28;20298;-76
2022/04/05 09:38:11;;;;;;;4.05;0.90;;;;;;;;;;10424357;28;20198;-76
2022/04/05 09:43:15;;;;;;;3.75;0.65;;;;;;;;;;10387881;28;20195;-76
2022/04/05 09:48:20;;;;;;;9.10;1.30;;;;;;;;;;10423811;28;20195;-76
2022/04/05 09:53:21;;;;;;;2.97;1.17;;;;;;;;;;10426322;28;20237;-75
2022/04/05 09:58:22;;;;;;;4.43;0.80;;;;;;;;;;10423600;28;20195;-75
2022/04/05 10:03:23;;;;;;;2.17;0.57;;;;;;;;;;10423807;28;20218;-75
2022/04/05 10:08:24;;;;;;;4.30;0.85;;;;;;;;;;10423799;28;20230;-75
2022/04/05 10:13:25;;;;;;;4.60;1.20;;;;;;;;;;10425507;28;20214;-74
2022/04/05 10:18:32;;;;;;;6.07;0.93;;;;;;;;;;10419999;28;20213;-75
2022/04/05 10:23:33;;;;;;;5.15;1.30;;;;;;;;;;10418313;28;20345;-75
2022/04/05 10:28:35;;;;;;;4.22;1.08;;;;;;;;;;10424633;28;20206;-76
2022/04/05 10:33:50;;;;;;;3.47;0.85;;;;;;;;;;10414337;28;20870;-75
2022/04/05 10:39:10;;;;;;;6.70;1.15;;;;;;;;;;10421052;28;20202;-75
2022/04/05 10:44:18;;;;;;;6.75;0.82;;;;;;;;;;10416803;28;20199;-76
2022/04/05 10:49:35;;;;;;;2.42;0.80;;;;;;;;;;10419305;28;20194;-76
2022/04/05 10:54:39;;;;;;;6.93;1.52;;;;;;;;;;10421788;28;20246;-75
2022/04/05 11:00:00;;;;;;;5.72;1.50;;;;;;;;;;10421174;28;20206;-75
2022/04/05 11:05:02;;;;;;;5.88;1.70;;;;;;;;;;10420390;28;20215;-74
2022/04/05 11:10:03;;;;;;;7.72;2.03;;;;;;;;;;10418834;28;20714;-76
2022/04/05 11:15:05;;;;;;;5.93;1.67;;;;;;;;;;10420128;28;20231;-75
2022/04/05 11:20:07;;;;;;;3.38;1.67;;;;;;;;;;10418968;28;20264;-75
2022/04/05 11:25:10;;;;;;;7.03;2.28;;;;;;;;;;10419492;28;20211;-75
2022/04/05 11:30:26;;;;;;;2.70;2.10;;;;;;;;;;10418221;28;20243;-75
2022/04/05 11:35:27;;;;;;;6.97;2.60;;;;;;;;;;10402749;28;20585;-76
2022/04/05 11:40:30;;;;;;;10.32;2.67;;;;;;;;;;10427916;28;20249;-76
2022/04/05 11:45:31;;;;;;;6.63;2.58;;;;;;;;;;10409884;28;20203;-75
2022/04/05 11:50:37;;;;;;;6.75;3.13;;;;;;;;;;10425990;28;20356;-75
2022/04/05 12:00:58;;;;;;;6.45;2.92;;;;;;;;;;10428602;28;20281;-75
2022/04/05 12:05:59;;;;;;;4.93;3.08;;;;;;;;;;10425631;28;20257;-76
2022/04/05 12:11:00;;;;;;;8.32;4.03;;;;;;;;;;10408082;28;20218;-76
2022/04/05 12:16:02;;;;;;;4.63;4.15;;;;;;;;;;10427405;28;20568;-77
2022/04/05 12:21:05;;;;;;;8.20;5.75;;;;;;;;;;10427780;28;20213;-76
2022/04/05 12:26:09;;;;;;;10.95;7.80;;;;;;;;;;10426999;28;20199;-75
2022/04/05 12:31:15;;;;;;;9.95;6.85;;;;;;;;;;10420879;28;20269;-76
2022/04/05 12:36:16;;;;;;;12.73;7.78;;;;;;;;;;10422494;28;20577;-76
2022/04/05 12:41:18;;;;;;;13.90;8.35;;;;;;;;;;10423686;28;20210;-74
2022/04/05 12:46:19;;;;;;;9.25;8.15;;;;;;;;;;10422324;28;20254;-75
2022/04/05 12:51:34;;;;;;;10.50;8.48;;;;;;;;;;10425226;28;20214;-75
2022/04/05 12:56:36;;;;;;;13.70;9.88;;;;;;;;;;10406035;28;20319;-75
2022/04/05 13:01:37;;;;;;;9.90;8.93;;;;;;;;;;10400425;28;20294;-75
2022/04/05 13:06:38;;;;;;;10.32;8.27;;;;;;;;;;10423299;28;20303;-75
2022/04/05 13:11:39;;;;;;;7.85;7.05;;;;;;;;;;10400491;28;20215;-75
2022/04/05 13:16:40;;;;;;;6.95;6.40;;;;;;;;;;10412209;28;20187;-75
2022/04/05 13:21:51;;;;;;;5.38;5.10;;;;;;;;;;10423196;28;20217;-74
2022/04/05 13:26:53;;;;;;;4.85;3.90;;;;;;;;;;10419069;28;20242;-75
2022/04/05 13:31:56;;;;;;;3.40;3.30;;;;;;;;;;10414923;28;20841;-75
2022/04/05 13:36:57;;;;;;;2.88;2.67;;;;;;;;;;10417403;28;20814;-75
2022/04/05 13:41:58;;;;;;;2.90;2.70;;;;;;;;;;10421789;28;20195;-75
2022/04/05 13:47:01;;;;;;;3.40;2.65;;;;;;;;;;10414519;28;20203;-75
2022/04/05 13:52:02;;;;;;;3.33;2.17;;;;;;;;;;10417745;28;20265;-75
2022/04/05 13:57:04;;;;;;;2.17;2.08;;;;;;;;;;10421884;28;20246;-73
2022/04/05 14:02:05;;;;;;;2.17;2.05;;;;;;;;;;10414236;28;20266;-76
2022/04/05 14:07:11;;;;;;;2.92;2.80;;;;;;;;;;10419456;28;20199;-75
2022/04/05 14:12:12;;;;;;;2.90;2.70;;;;;;;;;;10421039;28;20204;-73
2022/04/05 14:17:14;;;;;;;1.95;1.85;;;;;;;;;;10420318;28;20227;-73
2022/04/05 14:22:16;;;;;;;2.00;1.90;;;;;;;;;;10419106;28;20211;-73
2022/04/05 14:27:17;;;;;;;2.45;2.35;;;;;;;;;;10401795;28;20891;-74
2022/04/05 14:32:18;;;;;;;1.60;1.50;;;;;;;;;;10420702;28;20230;-73
2022/04/05 14:37:19;;;;;;;1.30;1.30;;;;;;;;;;10415648;28;20268;-74
2022/04/05 14:42:21;;;;;;;1.73;1.63;;;;;;;;;;10420367;28;20199;-76
2022/04/05 14:47:22;;;;;;;1.23;1.02;;;;;;;;;;10413544;28;20207;-75
2022/04/05 14:52:23;;;;;;;1.90;1.80;;;;;;;;;;10413787;28;20221;-75
2022/04/05 14:57:24;;;;;;;2.00;2.00;;;;;;;;;;10364556;28;20223;-76
2022/04/05 15:02:25;;;;;;;2.28;2.10;;;;;;;;;;10372286;28;20848;-70
2022/04/05 15:07:26;;;;;;;2.75;2.65;;;;;;;;;;10384220;28;20196;-75
2022/04/05 15:12:27;;;;;;;2.55;2.45;;;;;;;;;;10374902;28;20207;-75
2022/04/05 15:17:29;;;;;;;1.92;1.77;;;;;;;;;;10357254;28;20204;-76
2022/04/05 15:22:30;;;;;;;1.45;1.45;;;;;;;;;;10358454;28;20199;-75
2022/04/05 15:27:31;;;;;;;2.03;2.03;;;;;;;;;;10357518;28;20693;-74
2022/04/05 15:32:32;;;;;;;1.75;1.65;;;;;;;;;;10376904;28;20584;-75
2022/04/05 15:37:34;;;;;;;1.40;1.40;;;;;;;;;;10374570;28;20706;-76
2022/04/05 15:42:35;;;;;;;1.30;1.20;;;;;;;;;;10378744;28;20235;-76
2022/04/05 15:47:36;;;;;;;1.40;1.40;;;;;;;;;;10377689;28;20202;-76
2022/04/05 15:52:38;;;;;;;1.33;1.33;;;;;;;;;;10379143;28;20215;-75
2022/04/05 15:57:39;;;;;;;2.17;1.17;;;;;;;;;;10418779;28;20699;-76
2022/04/05 16:02:40;;;;;;;1.92;1.92;;;;;;;;;;10417071;28;20714;-75
2022/04/05 16:07:41;;;;;;;2.40;2.33;;;;;;;;;;10419408;28;20238;-75
2022/04/05 16:12:43;;;;;;;2.50;2.50;;;;;;;;;;10419559;28;20222;-76
2022/04/05 16:17:44;;;;;;;2.10;2.03;;;;;;;;;;10419343;28;20195;-76
2022/04/05 16:22:45;;;;;;;2.88;2.80;;;;;;;;;;10424429;28;20682;-75
2022/04/05 16:27:47;;;;;;;3.28;3.17;;;;;;;;;;10427219;28;20203;-75
2022/04/05 16:32:48;;;;;;;2.92;2.83;;;;;;;;;;10429017;28;20243;-74
2022/04/05 16:37:49;;;;;;;3.80;3.50;;;;;;;;;;10428250;28;20206;-75
2022/04/05 16:42:53;;;;;;;3.90;3.70;;;;;;;;;;10425043;28;20225;-74
2022/04/05 16:47:54;;;;;;;4.00;3.90;;;;;;;;;;10424838;28;20203;-74
2022/04/05 16:52:55;;;;;;;4.20;4.10;;;;;;;;;;10424480;28;20215;-75
2022/04/05 16:57:57;;;;;;;4.32;4.22;;;;;;;;;;10408101;28;20196;-75
2022/04/05 17:02:58;;;;;;;5.00;4.80;;;;;;;;;;10421686;28;20699;-75
2022/04/05 17:07:59;;;;;;;6.35;5.90;;;;;;;;;;10425754;28;20281;-75
2022/04/05 17:13:00;;;;;;;7.43;6.93;;;;;;;;;;10422856;28;20570;-75
2022/04/05 17:18:01;;;;;;;5.50;5.30;;;;;;;;;;10423560;28;20262;-75
2022/04/05 17:23:02;;;;;;;4.28;4.18;;;;;;;;;;10385239;28;20213;-74
2022/04/05 17:28:05;;;;;;;4.97;4.78;;;;;;;;;;10422615;28;20199;-75
2022/04/05 17:33:06;;;;;;;4.72;4.53;;;;;;;;;;10421933;28;20231;-74
2022/04/05 17:38:08;;;;;;;4.85;4.65;;;;;;;;;;10417997;28;20752;-77
2022/04/05 17:43:09;;;;;;;5.40;5.00;;;;;;;;;;10421835;28;20199;-77
2022/04/05 17:48:11;;;;;;;8.82;8.13;;;;;;;;;;10422424;28;20228;-76
2022/04/05 17:53:12;;;;;;;7.43;6.82;;;;;;;;;;10425126;28;20233;-77
2022/04/05 17:58:13;;;;;;;6.35;5.90;;;;;;;;;;10426310;28;20230;-76
2022/04/05 18:03:15;;;;;;;6.97;6.38;;;;;;;;;;10422177;28;20221;-76
2022/04/05 18:08:16;;;;;;;7.03;6.50;;;;;;;;;;10422597;28;20694;-76
2022/04/05 18:13:17;;;;;;;8.23;7.50;;;;;;;;;;10421336;28;20222;-73
2022/04/05 18:18:18;;;;;;;7.78;7.28;;;;;;;;;;10423807;28;20222;-74
2022/04/05 18:23:19;;;;;;;8.05;7.43;;;;;;;;;;10420585;28;20213;-74
2022/04/05 18:28:20;;;;;;;8.73;7.85;;;;;;;;;;10419832;28;20203;-74
2022/04/05 18:33:21;;;;;;;7.47;6.93;;;;;;;;;;10416594;28;20222;-75
2022/04/05 18:38:23;;;;;;;6.88;6.38;;;;;;;;;;10423389;28;20207;-75
2022/04/05 18:43:24;;;;;;;7.28;6.70;;;;;;;;;;10421795;28;20207;-75
2022/04/05 18:48:26;;;;;;;9.45;8.57;;;;;;;;;;10417455;28;20207;-73
2022/04/05 18:53:29;;;;;;;10.27;9.20;;;;;;;;;;10418085;28;20214;-76
2022/04/05 18:58:31;;;;;;;12.48;9.38;;;;;;;;;;10421244;28;20995;-75
2022/04/05 19:03:32;;;;;;;9.15;8.35;;;;;;;;;;10419039;28;20264;-75
2022/04/05 19:08:33;;;;;;;8.18;7.43;;;;;;;;;;10418884;28;20226;-75
2022/04/05 19:13:34;;;;;;;8.00;7.20;;;;;;;;;;10421461;28;20207;-74
2022/04/05 19:18:35;;;;;;;8.35;7.28;;;;;;;;;;10420054;28;20341;-74
2022/04/05 19:23:39;;;;;;;7.07;6.57;;;;;;;;;;10419711;28;20198;-74
2022/04/05 19:28:41;;;;;;;7.38;6.78;;;;;;;;;;10420444;28;20194;-75
2022/04/05 19:33:42;;;;;;;7.10;6.70;;;;;;;;;;10418213;28;20339;-73
2022/04/05 19:38:43;;;;;;;5.65;5.35;;;;;;;;;;10417385;28;20202;-73
2022/04/05 19:43:45;;;;;;;6.47;5.80;;;;;;;;;;10417712;28;20612;-74
2022/04/05 19:48:47;;;;;;;5.80;5.50;;;;;;;;;;10418917;28;20211;-74
2022/04/05 19:53:48;;;;;;;8.30;7.53;;;;;;;;;;10418306;28;20223;-73
2022/04/05 19:58:49;;;;;;;6.57;6.18;;;;;;;;;;10421845;28;20222;-74
2022/04/05 20:03:50;;;;;;;6.40;5.93;;;;;;;;;;10427187;28;20214;-74
2022/04/05 20:08:54;;;;;;;6.00;5.72;;;;;;;;;;10427239;28;20200;-75
2022/04/05 20:13:56;;;;;;;7.03;6.53;;;;;;;;;;10420112;28;20606;-75
2022/04/05 20:18:58;;;;;;;7.25;6.75;;;;;;;;;;10421952;28;20320;-75
2022/04/05 20:23:59;;;;;;;7.03;6.53;;;;;;;;;;10422454;28;20199;-75
2022/04/05 20:29:00;;;;;;;9.20;8.35;;;;;;;;;;10422935;28;20551;-75
2022/04/05 20:34:01;;;;;;;9.60;8.80;;;;;;;;;;10419613;28;20222;-75
2022/04/05 20:39:02;;;;;;;9.70;8.93;;;;;;;;;;10425393;28;20195;-74
2022/04/05 20:44:03;;;;;;;10.10;9.15;;;;;;;;;;10419984;28;20195;-76
2022/04/05 20:49:04;;;;;;;9.32;8.52;;;;;;;;;;10417746;28;20686;-75
2022/04/05 20:54:06;;;;;;;9.23;8.50;;;;;;;;;;10422848;28;20227;-75
2022/04/05 20:59:07;;;;;;;9.48;7.95;;;;;;;;;;10422399;28;20207;-75
2022/04/05 21:04:08;;;;;;;9.68;8.75;;;;;;;;;;10423188;28;20738;-75
2022/04/05 21:09:10;;;;;;;9.15;8.25;;;;;;;;;;10405956;28;20567;-73
2022/04/05 21:14:11;;;;;;;7.90;7.07;;;;;;;;;;10422047;28;20624;-75
2022/04/05 21:19:12;;;;;;;6.25;5.75;;;;;;;;;;10420805;28;20211;-75
2022/04/05 21:24:13;;;;;;;6.63;6.22;;;;;;;;;;10422568;28;20214;-75
2022/04/05 21:29:35;;;;;;;7.55;6.78;;;;;;;;;;10422343;28;20547;-76
2022/04/05 21:34:39;;;;;;;7.47;6.90;;;;;;;;;;10419805;28;20238;-76
2022/04/05 21:39:40;;;;;;;6.50;6.00;;;;;;;;;;10417653;28;20242;-74
2022/04/05 21:44:42;;;;;;;6.65;6.15;;;;;;;;;;10419308;28;20196;-75
2022/04/05 21:49:43;;;;;;;7.20;6.60;;;;;;;;;;10420061;28;20225;-76
2022/04/05 21:54:45;;;;;;;6.47;6.03;;;;;;;;;;10417964;28;20223;-75
2022/04/05 21:59:46;;;;;;;6.65;6.25;;;;;;;;;;10423091;28;20214;-75
2022/04/05 22:04:47;;;;;;;6.28;5.88;;;;;;;;;;10419642;28;20230;-76
2022/04/05 22:09:48;;;;;;;6.35;5.80;;;;;;;;;;10422759;28;20277;-75
2022/04/05 22:14:49;;;;;;;6.03;5.72;;;;;;;;;;10421722;28;20268;-75
2022/04/05 22:19:50;;;;;;;6.68;6.25;;;;;;;;;;10420529;28;20701;-75
2022/04/05 22:24:51;;;;;;;6.65;6.22;;;;;;;;;;10421507;28;20229;-76
2022/04/05 22:29:52;;;;;;;6.78;6.47;;;;;;;;;;10419686;28;20207;-76
2022/04/05 22:34:53;;;;;;;6.90;6.50;;;;;;;;;;10401554;28;20223;-73
2022/04/05 22:39:54;;;;;;;7.40;6.90;;;;;;;;;;10418399;28;20203;-74
2022/04/05 22:44:55;;;;;;;7.15;6.75;;;;;;;;;;10417883;28;20204;-74
2022/04/05 22:49:57;;;;;;;7.95;7.20;;;;;;;;;;10419259;28;20295;-74
2022/04/05 22:54:58;;;;;;;7.82;7.32;;;;;;;;;;10416044;28;20233;-73
2022/04/05 22:59:59;;;;;;;8.32;7.80;;;;;;;;;;10418121;28;20221;-69
2022/04/05 23:05:00;;;;;;;8.85;8.15;;;;;;;;;;10420252;28;20298;-76
2022/04/05 23:10:01;;;;;;;10.00;9.20;;;;;;;;;;10418627;28;20207;-76
2022/04/05 23:15:06;;;;;;;10.20;9.30;;;;;;;;;;10400953;28;20292;-76
2022/04/05 23:20:07;;;;;;;10.07;9.27;;;;;;;;;;10416921;28;20948;-76
2022/04/05 23:25:09;;;;;;;10.02;9.20;;;;;;;;;;10416800;28;20207;-76
2022/04/05 23:30:10;;;;;;;9.70;8.90;;;;;;;;;;10419528;28;20207;-76
2022/04/05 23:35:11;;;;;;;8.98;8.30;;;;;;;;;;10425180;28;20218;-76
2022/04/05 23:40:12;;;;;;;11.23;10.23;;;;;;;;;;10424443;28;20206;-76
2022/04/05 23:45:13;;;;;;;11.50;10.30;;;;;;;;;;10407678;28;20229;-74
2022/04/05 23:50:15;;;;;;;11.65;10.45;;;;;;;;;;10418947;28;20198;-72
2022/04/05 23:55:16;;;;;;;9.93;9.07;;;;;;;;;;10424133;28;20612;-75
